sensor_id;sensor_type;location;lat;lon;timestamp;pressure;altitude;pressure_sealevel;temperature;humidity
38054;BME280;23859;50.672;7.164;2022-08-25T00:01:30;100803.28;;;22.16;59.36
38054;BME280;23859;50.672;7.164;2022-08-25T00:03:57;100811.19;;;21.99;60.73
38054;BME280;23859;50.672;7.164;2022-08-25T00:06:24;100808.81;;;21.83;61.06
38054;BME280;23859;50.672;7.164;2022-08-25T00:08:50;100806.28;;;21.68;61.01
38054;BME280;23859;50.672;7.164;2022-08-25T00:11:22;100811.03;;;21.60;60.77
38054;BME280;23859;50.672;7.164;2022-08-25T00:13:51;100805.78;;;21.52;61.55
38054;BME280;23859;50.672;7.164;2022-08-25T00:16:20;100810.63;;;21.63;61.78
38054;BME280;23859;50.672;7.164;2022-08-25T00:18:49;100811.25;;;21.58;62.70
38054;BME280;23859;50.672;7.164;2022-08-25T00:21:16;100821.97;;;21.45;62.75
38054;BME280;23859;50.672;7.164;2022-08-25T00:23:43;100802.00;;;21.46;62.57
38054;BME280;23859;50.672;7.164;2022-08-25T00:26:10;100810.06;;;21.40;63.10
38054;BME280;23859;50.672;7.164;2022-08-25T00:28:37;100810.00;;;21.27;63.18
38054;BME280;23859;50.672;7.164;2022-08-25T00:31:05;100811.47;;;21.23;63.94
38054;BME280;23859;50.672;7.164;2022-08-25T00:33:32;100818.72;;;21.23;63.92
38054;BME280;23859;50.672;7.164;2022-08-25T00:35:59;100817.44;;;21.19;64.04
38054;BME280;23859;50.672;7.164;2022-08-25T00:38:26;100818.34;;;21.26;64.46
38054;BME280;23859;50.672;7.164;2022-08-25T00:40:53;100819.59;;;21.30;64.95
38054;BME280;23859;50.672;7.164;2022-08-25T00:46:11;100806.63;;;21.19;65.10
38054;BME280;23859;50.672;7.164;2022-08-25T00:48:38;100816.53;;;21.05;65.64
38054;BME280;23859;50.672;7.164;2022-08-25T00:51:07;100821.69;;;21.00;65.49
38054;BME280;23859;50.672;7.164;2022-08-25T00:53:34;100817.91;;;20.95;65.73
38054;BME280;23859;50.672;7.164;2022-08-25T00:56:01;100817.66;;;20.90;66.56
38054;BME280;23859;50.672;7.164;2022-08-25T00:58:29;100819.28;;;20.84;66.78
38054;BME280;23859;50.672;7.164;2022-08-25T01:00:57;100819.06;;;20.79;67.17
38054;BME280;23859;50.672;7.164;2022-08-25T01:03:26;100812.53;;;20.74;67.22
38054;BME280;23859;50.672;7.164;2022-08-25T01:05:53;100816.00;;;20.68;67.49
38054;BME280;23859;50.672;7.164;2022-08-25T01:08:23;100822.59;;;20.59;68.69
38054;BME280;23859;50.672;7.164;2022-08-25T01:10:53;100818.66;;;20.62;67.62
38054;BME280;23859;50.672;7.164;2022-08-25T01:13:31;100814.09;;;20.62;67.93
38054;BME280;23859;50.672;7.164;2022-08-25T01:15:58;100814.28;;;20.61;68.22
38054;BME280;23859;50.672;7.164;2022-08-25T01:18:24;100817.84;;;20.61;67.73
38054;BME280;23859;50.672;7.164;2022-08-25T01:20:57;100812.56;;;20.53;67.91
38054;BME280;23859;50.672;7.164;2022-08-25T01:23:25;100816.88;;;20.48;68.31
38054;BME280;23859;50.672;7.164;2022-08-25T01:26:11;100819.75;;;20.46;68.10
38054;BME280;23859;50.672;7.164;2022-08-25T01:28:39;100818.47;;;20.42;68.57
38054;BME280;23859;50.672;7.164;2022-08-25T01:31:27;100820.56;;;20.40;68.16
38054;BME280;23859;50.672;7.164;2022-08-25T01:33:53;100822.59;;;20.38;67.79
38054;BME280;23859;50.672;7.164;2022-08-25T01:36:21;100813.44;;;20.33;68.61
38054;BME280;23859;50.672;7.164;2022-08-25T01:38:48;100815.78;;;20.21;69.73
38054;BME280;23859;50.672;7.164;2022-08-25T01:41:40;100819.50;;;20.20;69.02
38054;BME280;23859;50.672;7.164;2022-08-25T01:44:06;100817.41;;;20.16;69.38
38054;BME280;23859;50.672;7.164;2022-08-25T01:46:33;100820.66;;;20.11;69.63
38054;BME280;23859;50.672;7.164;2022-08-25T01:49:00;100814.44;;;20.11;69.68
38054;BME280;23859;50.672;7.164;2022-08-25T01:51:29;100814.63;;;20.09;69.92
38054;BME280;23859;50.672;7.164;2022-08-25T01:53:58;100820.22;;;20.08;69.38
38054;BME280;23859;50.672;7.164;2022-08-25T01:56:24;100815.38;;;20.04;69.53
38054;BME280;23859;50.672;7.164;2022-08-25T01:58:50;100825.16;;;20.05;69.49
38054;BME280;23859;50.672;7.164;2022-08-25T02:01:20;100818.03;;;19.97;69.07
38054;BME280;23859;50.672;7.164;2022-08-25T02:03:49;100816.75;;;19.93;69.56
38054;BME280;23859;50.672;7.164;2022-08-25T02:06:18;100812.16;;;19.94;70.27
38054;BME280;23859;50.672;7.164;2022-08-25T02:08:46;100817.91;;;19.91;69.94
38054;BME280;23859;50.672;7.164;2022-08-25T02:11:15;100818.03;;;19.97;68.00
38054;BME280;23859;50.672;7.164;2022-08-25T02:13:41;100825.81;;;20.07;67.79
38054;BME280;23859;50.672;7.164;2022-08-25T02:16:09;100820.53;;;19.99;66.74
38054;BME280;23859;50.672;7.164;2022-08-25T02:18:39;100822.59;;;19.97;67.08
38054;BME280;23859;50.672;7.164;2022-08-25T02:21:06;100822.28;;;19.92;67.29
38054;BME280;23859;50.672;7.164;2022-08-25T02:23:32;100819.59;;;19.92;67.71
38054;BME280;23859;50.672;7.164;2022-08-25T02:25:58;100822.28;;;19.92;68.12
38054;BME280;23859;50.672;7.164;2022-08-25T02:28:24;100826.13;;;19.97;68.11
38054;BME280;23859;50.672;7.164;2022-08-25T02:30:50;100824.91;;;20.00;68.46
38054;BME280;23859;50.672;7.164;2022-08-25T02:33:18;100830.03;;;19.95;68.74
38054;BME280;23859;50.672;7.164;2022-08-25T02:35:44;100825.66;;;19.94;69.13
38054;BME280;23859;50.672;7.164;2022-08-25T02:38:10;100826.72;;;19.93;69.10
38054;BME280;23859;50.672;7.164;2022-08-25T02:40:36;100824.53;;;20.03;68.84
38054;BME280;23859;50.672;7.164;2022-08-25T02:43:02;100820.53;;;19.99;68.79
38054;BME280;23859;50.672;7.164;2022-08-25T02:45:28;100817.19;;;19.97;69.41
38054;BME280;23859;50.672;7.164;2022-08-25T02:47:54;100819.91;;;19.97;69.42
38054;BME280;23859;50.672;7.164;2022-08-25T02:50:20;100821.19;;;20.01;69.67
38054;BME280;23859;50.672;7.164;2022-08-25T02:52:47;100817.81;;;19.99;69.88
38054;BME280;23859;50.672;7.164;2022-08-25T02:55:16;100817.75;;;19.92;70.06
38054;BME280;23859;50.672;7.164;2022-08-25T02:57:43;100809.84;;;19.76;71.20
38054;BME280;23859;50.672;7.164;2022-08-25T03:00:11;100808.41;;;19.59;71.76
38054;BME280;23859;50.672;7.164;2022-08-25T03:02:37;100804.63;;;19.54;71.98
38054;BME280;23859;50.672;7.164;2022-08-25T03:05:06;100795.50;;;19.55;72.17
38054;BME280;23859;50.672;7.164;2022-08-25T03:07:34;100799.84;;;19.56;72.58
38054;BME280;23859;50.672;7.164;2022-08-25T03:10:06;100799.69;;;19.57;72.44
38054;BME280;23859;50.672;7.164;2022-08-25T03:12:32;100795.03;;;19.51;72.43
38054;BME280;23859;50.672;7.164;2022-08-25T03:14:58;100788.72;;;19.44;73.29
38054;BME280;23859;50.672;7.164;2022-08-25T03:17:24;100783.50;;;19.57;72.95
38054;BME280;23859;50.672;7.164;2022-08-25T03:19:50;100788.06;;;19.92;71.58
38054;BME280;23859;50.672;7.164;2022-08-25T03:22:16;100792.00;;;19.75;71.85
38054;BME280;23859;50.672;7.164;2022-08-25T03:24:42;100790.75;;;19.57;72.16
38054;BME280;23859;50.672;7.164;2022-08-25T03:27:08;100785.38;;;19.42;73.55
38054;BME280;23859;50.672;7.164;2022-08-25T03:29:34;100787.31;;;19.34;74.44
38054;BME280;23859;50.672;7.164;2022-08-25T03:32:00;100783.63;;;19.21;74.40
38054;BME280;23859;50.672;7.164;2022-08-25T03:34:28;100790.59;;;19.15;74.13
38054;BME280;23859;50.672;7.164;2022-08-25T03:36:55;100781.84;;;19.13;74.32
38054;BME280;23859;50.672;7.164;2022-08-25T03:39:23;100779.56;;;19.10;74.46
38054;BME280;23859;50.672;7.164;2022-08-25T03:41:51;100786.66;;;19.03;74.75
38054;BME280;23859;50.672;7.164;2022-08-25T03:44:18;100785.75;;;18.96;75.15
38054;BME280;23859;50.672;7.164;2022-08-25T03:46:47;100785.44;;;18.91;75.56
38054;BME280;23859;50.672;7.164;2022-08-25T03:49:17;100778.03;;;18.93;76.32
38054;BME280;23859;50.672;7.164;2022-08-25T03:51:46;100774.31;;;18.94;75.47
38054;BME280;23859;50.672;7.164;2022-08-25T03:54:14;100767.25;;;18.93;74.95
38054;BME280;23859;50.672;7.164;2022-08-25T03:56:41;100760.91;;;18.86;74.96
38054;BME280;23859;50.672;7.164;2022-08-25T03:59:07;100764.34;;;18.80;75.18
38054;BME280;23859;50.672;7.164;2022-08-25T04:01:39;100756.56;;;18.85;75.32
38054;BME280;23859;50.672;7.164;2022-08-25T04:04:07;100646.84;;;18.22;74.44
38054;BME280;23859;50.672;7.164;2022-08-25T04:06:34;100760.56;;;18.89;75.01
38054;BME280;23859;50.672;7.164;2022-08-25T04:09:00;100754.59;;;18.94;75.18
38054;BME280;23859;50.672;7.164;2022-08-25T04:11:27;100759.16;;;18.93;75.66
38054;BME280;23859;50.672;7.164;2022-08-25T04:13:55;100754.97;;;18.91;75.43
38054;BME280;23859;50.672;7.164;2022-08-25T04:16:25;100756.47;;;18.93;75.40
38054;BME280;23859;50.672;7.164;2022-08-25T04:18:52;100766.22;;;18.94;75.68
38054;BME280;23859;50.672;7.164;2022-08-25T04:21:20;100761.84;;;18.93;75.63
38054;BME280;23859;50.672;7.164;2022-08-25T04:23:47;100756.47;;;18.93;75.57
38054;BME280;23859;50.672;7.164;2022-08-25T04:26:26;100764.84;;;18.98;75.98
38054;BME280;23859;50.672;7.164;2022-08-25T04:28:54;100760.84;;;18.94;76.15
38054;BME280;23859;50.672;7.164;2022-08-25T04:31:21;100765.56;;;18.92;76.41
38054;BME280;23859;50.672;7.164;2022-08-25T04:33:48;100767.34;;;18.85;76.49
38054;BME280;23859;50.672;7.164;2022-08-25T04:36:16;100762.13;;;18.84;76.68
38054;BME280;23859;50.672;7.164;2022-08-25T04:38:44;100764.66;;;18.85;76.87
38054;BME280;23859;50.672;7.164;2022-08-25T04:41:12;100751.66;;;18.74;77.33
38054;BME280;23859;50.672;7.164;2022-08-25T04:43:40;100754.41;;;18.67;77.69
38054;BME280;23859;50.672;7.164;2022-08-25T04:46:08;100761.38;;;18.61;77.80
38054;BME280;23859;50.672;7.164;2022-08-25T04:48:36;100757.19;;;18.59;78.09
38054;BME280;23859;50.672;7.164;2022-08-25T04:51:09;100760.53;;;18.61;78.27
38054;BME280;23859;50.672;7.164;2022-08-25T04:53:38;100762.50;;;18.67;77.70
38054;BME280;23859;50.672;7.164;2022-08-25T04:56:10;100765.84;;;18.69;77.82
38054;BME280;23859;50.672;7.164;2022-08-25T04:58:36;100758.88;;;18.88;76.65
38054;BME280;23859;50.672;7.164;2022-08-25T05:01:15;100763.34;;;18.81;76.67
38054;BME280;23859;50.672;7.164;2022-08-25T05:03:42;100761.22;;;18.77;77.22
38054;BME280;23859;50.672;7.164;2022-08-25T05:06:10;100754.63;;;18.79;77.75
38054;BME280;23859;50.672;7.164;2022-08-25T05:08:36;100756.28;;;18.80;77.18
38054;BME280;23859;50.672;7.164;2022-08-25T05:11:07;100744.13;;;18.84;77.40
38054;BME280;23859;50.672;7.164;2022-08-25T05:13:34;100753.31;;;18.90;77.35
38054;BME280;23859;50.672;7.164;2022-08-25T05:16:01;100753.13;;;18.91;77.09
38054;BME280;23859;50.672;7.164;2022-08-25T05:18:29;100754.91;;;18.99;76.41
38054;BME280;23859;50.672;7.164;2022-08-25T05:21:00;100751.00;;;19.01;76.25
38054;BME280;23859;50.672;7.164;2022-08-25T05:23:26;100748.31;;;19.16;75.59
38054;BME280;23859;50.672;7.164;2022-08-25T05:25:52;100739.41;;;19.15;75.64
38054;BME280;23859;50.672;7.164;2022-08-25T05:28:20;100744.09;;;19.42;74.31
38054;BME280;23859;50.672;7.164;2022-08-25T05:30:47;100738.91;;;19.40;74.17
38054;BME280;23859;50.672;7.164;2022-08-25T05:33:16;100743.06;;;19.43;74.48
38054;BME280;23859;50.672;7.164;2022-08-25T05:35:43;100730.47;;;19.50;73.74
38054;BME280;23859;50.672;7.164;2022-08-25T05:38:09;100736.34;;;19.53;73.84
38054;BME280;23859;50.672;7.164;2022-08-25T05:40:35;100737.44;;;19.59;74.35
38054;BME280;23859;50.672;7.164;2022-08-25T05:43:01;100739.84;;;19.68;73.68
38054;BME280;23859;50.672;7.164;2022-08-25T05:45:27;100735.13;;;19.77;72.92
38054;BME280;23859;50.672;7.164;2022-08-25T05:47:53;100733.34;;;19.84;72.50
38054;BME280;23859;50.672;7.164;2022-08-25T05:50:20;100739.13;;;19.95;72.76
38054;BME280;23859;50.672;7.164;2022-08-25T05:52:46;100739.03;;;20.09;71.78
38054;BME280;23859;50.672;7.164;2022-08-25T05:55:12;100742.06;;;20.21;71.35
38054;BME280;23859;50.672;7.164;2022-08-25T05:57:40;100726.16;;;20.32;71.16
38054;BME280;23859;50.672;7.164;2022-08-25T06:00:07;100723.34;;;20.40;70.87
38054;BME280;23859;50.672;7.164;2022-08-25T06:02:34;100718.78;;;20.47;69.76
38054;BME280;23859;50.672;7.164;2022-08-25T06:05:07;100716.78;;;20.56;69.65
38054;BME280;23859;50.672;7.164;2022-08-25T06:07:33;100726.41;;;20.65;69.28
38054;BME280;23859;50.672;7.164;2022-08-25T06:10:02;100724.78;;;20.70;68.87
38054;BME280;23859;50.672;7.164;2022-08-25T06:12:28;100719.50;;;20.83;68.23
38054;BME280;23859;50.672;7.164;2022-08-25T06:14:55;100708.50;;;20.91;68.19
38054;BME280;23859;50.672;7.164;2022-08-25T06:17:21;100714.66;;;21.12;67.34
38054;BME280;23859;50.672;7.164;2022-08-25T06:19:47;100713.09;;;21.31;66.55
38054;BME280;23859;50.672;7.164;2022-08-25T06:22:13;100715.22;;;21.48;66.16
38054;BME280;23859;50.672;7.164;2022-08-25T06:24:39;100704.91;;;21.77;65.22
38054;BME280;23859;50.672;7.164;2022-08-25T06:27:05;100704.31;;;22.14;64.55
38054;BME280;23859;50.672;7.164;2022-08-25T06:29:31;100712.06;;;22.43;63.54
38054;BME280;23859;50.672;7.164;2022-08-25T06:31:57;100715.38;;;22.58;60.24
38054;BME280;23859;50.672;7.164;2022-08-25T06:34:23;100714.50;;;22.77;59.86
38054;BME280;23859;50.672;7.164;2022-08-25T06:36:50;100719.47;;;22.92;58.37
38054;BME280;23859;50.672;7.164;2022-08-25T06:39:16;100720.91;;;23.14;57.57
38054;BME280;23859;50.672;7.164;2022-08-25T06:41:42;100723.53;;;23.40;56.81
38054;BME280;23859;50.672;7.164;2022-08-25T06:44:08;100721.00;;;23.45;56.92
38054;BME280;23859;50.672;7.164;2022-08-25T06:46:35;100716.44;;;23.39;56.47
38054;BME280;23859;50.672;7.164;2022-08-25T06:49:02;100720.38;;;23.43;56.47
38054;BME280;23859;50.672;7.164;2022-08-25T06:51:28;100723.06;;;23.49;56.60
38054;BME280;23859;50.672;7.164;2022-08-25T06:53:54;100719.84;;;23.65;56.08
38054;BME280;23859;50.672;7.164;2022-08-25T06:56:21;100729.03;;;23.71;55.65
38054;BME280;23859;50.672;7.164;2022-08-25T06:58:47;100728.69;;;23.92;55.21
38054;BME280;23859;50.672;7.164;2022-08-25T07:01:18;100729.16;;;24.86;52.78
38054;BME280;23859;50.672;7.164;2022-08-25T07:03:48;100716.38;;;25.76;50.46
38054;BME280;23859;50.672;7.164;2022-08-25T07:06:15;100721.69;;;26.00;49.75
38054;BME280;23859;50.672;7.164;2022-08-25T07:08:41;100720.13;;;26.04;49.64
38054;BME280;23859;50.672;7.164;2022-08-25T07:11:08;100718.59;;;25.50;50.96
38054;BME280;23859;50.672;7.164;2022-08-25T07:13:35;100726.19;;;25.30;52.04
38054;BME280;23859;50.672;7.164;2022-08-25T07:16:03;100720.16;;;25.28;51.82
38054;BME280;23859;50.672;7.164;2022-08-25T07:18:30;100729.38;;;25.09;52.88
38054;BME280;23859;50.672;7.164;2022-08-25T07:20:57;100725.84;;;25.02;53.36
38054;BME280;23859;50.672;7.164;2022-08-25T07:23:23;100719.34;;;24.85;53.67
38054;BME280;23859;50.672;7.164;2022-08-25T07:25:51;100714.72;;;25.10;52.71
38054;BME280;23859;50.672;7.164;2022-08-25T07:28:18;100720.06;;;25.34;52.54
38054;BME280;23859;50.672;7.164;2022-08-25T07:30:44;100726.09;;;25.54;51.58
38054;BME280;23859;50.672;7.164;2022-08-25T07:33:11;100728.41;;;25.68;52.23
38054;BME280;23859;50.672;7.164;2022-08-25T07:35:37;100727.00;;;25.95;50.99
38054;BME280;23859;50.672;7.164;2022-08-25T07:38:06;100737.28;;;25.93;51.91
38054;BME280;23859;50.672;7.164;2022-08-25T07:40:35;100730.78;;;25.94;51.78
38054;BME280;23859;50.672;7.164;2022-08-25T07:43:05;100721.69;;;26.00;51.39
38054;BME280;23859;50.672;7.164;2022-08-25T07:45:34;100722.09;;;25.86;51.78
38054;BME280;23859;50.672;7.164;2022-08-25T07:48:06;100721.66;;;25.89;51.79
38054;BME280;23859;50.672;7.164;2022-08-25T07:50:35;100729.47;;;25.97;51.62
38054;BME280;23859;50.672;7.164;2022-08-25T07:53:04;100725.81;;;25.91;51.59
38054;BME280;23859;50.672;7.164;2022-08-25T07:55:30;100726.34;;;26.11;51.50
38054;BME280;23859;50.672;7.164;2022-08-25T07:57:57;100726.78;;;26.49;50.69
38054;BME280;23859;50.672;7.164;2022-08-25T08:00:25;100725.03;;;26.66;49.81
38054;BME280;23859;50.672;7.164;2022-08-25T08:02:58;100725.00;;;26.88;49.27
38054;BME280;23859;50.672;7.164;2022-08-25T08:05:24;100733.91;;;26.73;49.97
38054;BME280;23859;50.672;7.164;2022-08-25T08:07:52;100725.50;;;27.08;49.71
38054;BME280;23859;50.672;7.164;2022-08-25T08:10:19;100729.50;;;27.17;49.89
38054;BME280;23859;50.672;7.164;2022-08-25T08:12:45;100726.34;;;27.48;48.34
38054;BME280;23859;50.672;7.164;2022-08-25T08:15:11;100725.91;;;27.79;47.41
38054;BME280;23859;50.672;7.164;2022-08-25T08:17:39;100722.16;;;28.13;47.31
38054;BME280;23859;50.672;7.164;2022-08-25T08:20:07;100726.69;;;28.51;46.48
38054;BME280;23859;50.672;7.164;2022-08-25T08:22:35;100726.09;;;28.49;46.27
38054;BME280;23859;50.672;7.164;2022-08-25T08:25:02;100715.91;;;28.01;47.20
38054;BME280;23859;50.672;7.164;2022-08-25T08:27:28;100710.44;;;28.78;45.16
38054;BME280;23859;50.672;7.164;2022-08-25T08:29:54;100706.41;;;29.23;44.57
38054;BME280;23859;50.672;7.164;2022-08-25T08:32:21;100692.94;;;29.38;44.65
38054;BME280;23859;50.672;7.164;2022-08-25T08:34:47;100690.19;;;29.38;44.24
38054;BME280;23859;50.672;7.164;2022-08-25T08:37:14;100696.69;;;28.94;45.46
38054;BME280;23859;50.672;7.164;2022-08-25T08:39:41;100692.91;;;28.79;45.25
38054;BME280;23859;50.672;7.164;2022-08-25T08:42:27;100698.72;;;28.66;45.45
38054;BME280;23859;50.672;7.164;2022-08-25T08:48:15;100697.88;;;28.65;46.67
38054;BME280;23859;50.672;7.164;2022-08-25T08:50:58;100681.44;;;29.19;44.82
38054;BME280;23859;50.672;7.164;2022-08-25T08:53:42;100687.25;;;29.23;44.74
38054;BME280;23859;50.672;7.164;2022-08-25T08:56:14;100679.28;;;28.84;45.31
38054;BME280;23859;50.672;7.164;2022-08-25T08:58:47;100680.13;;;28.68;45.49
38054;BME280;23859;50.672;7.164;2022-08-25T09:01:28;100687.44;;;28.62;46.55
38054;BME280;23859;50.672;7.164;2022-08-25T09:04:14;100681.78;;;28.85;46.04
38054;BME280;23859;50.672;7.164;2022-08-25T09:06:45;100671.34;;;28.82;45.33
38054;BME280;23859;50.672;7.164;2022-08-25T09:09:15;100665.53;;;28.79;45.54
38054;BME280;23859;50.672;7.164;2022-08-25T09:11:52;100665.03;;;28.65;46.25
38054;BME280;23859;50.672;7.164;2022-08-25T09:17:08;100669.25;;;28.89;45.85
38054;BME280;23859;50.672;7.164;2022-08-25T09:19:48;100657.78;;;28.92;46.24
38054;BME280;23859;50.672;7.164;2022-08-25T09:30:52;100638.34;;;29.15;45.10
38054;BME280;23859;50.672;7.164;2022-08-25T09:33:22;100638.63;;;29.35;45.06
38054;BME280;23859;50.672;7.164;2022-08-25T09:35:50;100631.81;;;29.64;44.41
38054;BME280;23859;50.672;7.164;2022-08-25T09:38:17;100637.81;;;29.61;44.17
38054;BME280;23859;50.672;7.164;2022-08-25T09:40:52;100631.13;;;29.78;43.33
38054;BME280;23859;50.672;7.164;2022-08-25T09:43:34;100635.53;;;29.79;43.23
38054;BME280;23859;50.672;7.164;2022-08-25T09:46:13;100626.75;;;30.03;43.51
38054;BME280;23859;50.672;7.164;2022-08-25T09:48:46;100624.88;;;29.82;43.37
38054;BME280;23859;50.672;7.164;2022-08-25T09:51:31;100620.25;;;29.62;43.76
38054;BME280;23859;50.672;7.164;2022-08-25T09:56:28;100620.16;;;29.78;42.93
38054;BME280;23859;50.672;7.164;2022-08-25T09:59:16;100607.88;;;29.85;43.05
38054;BME280;23859;50.672;7.164;2022-08-25T10:02:27;100616.34;;;29.79;42.82
38054;BME280;23859;50.672;7.164;2022-08-25T10:04:54;100612.19;;;30.03;42.55
38054;BME280;23859;50.672;7.164;2022-08-25T10:07:38;100606.00;;;30.17;42.45
38054;BME280;23859;50.672;7.164;2022-08-25T10:10:28;100607.56;;;30.08;40.99
38054;BME280;23859;50.672;7.164;2022-08-25T10:12:54;100598.41;;;30.29;41.86
38054;BME280;23859;50.672;7.164;2022-08-25T10:15:36;100602.53;;;30.32;42.52
38054;BME280;23859;50.672;7.164;2022-08-25T10:18:25;100592.84;;;30.19;42.09
38054;BME280;23859;50.672;7.164;2022-08-25T10:21:03;100596.56;;;30.03;41.55
38054;BME280;23859;50.672;7.164;2022-08-25T10:23:30;100596.53;;;29.98;42.35
38054;BME280;23859;50.672;7.164;2022-08-25T10:26:01;100590.81;;;30.05;41.68
38054;BME280;23859;50.672;7.164;2022-08-25T10:28:49;100597.81;;;30.27;41.49
38054;BME280;23859;50.672;7.164;2022-08-25T10:31:25;100599.25;;;30.34;41.00
38054;BME280;23859;50.672;7.164;2022-08-25T10:34:15;100583.22;;;30.63;40.03
38054;BME280;23859;50.672;7.164;2022-08-25T10:37:14;100578.09;;;30.76;40.01
38054;BME280;23859;50.672;7.164;2022-08-25T10:40:03;100577.31;;;30.86;39.69
38054;BME280;23859;50.672;7.164;2022-08-25T10:45:25;100562.22;;;30.88;40.12
38054;BME280;23859;50.672;7.164;2022-08-25T10:56:45;100558.75;;;31.07;38.46
38054;BME280;23859;50.672;7.164;2022-08-25T11:02:30;100553.88;;;31.44;37.71
38054;BME280;23859;50.672;7.164;2022-08-25T11:07:49;100546.94;;;32.66;35.38
38054;BME280;23859;50.672;7.164;2022-08-25T11:10:24;100551.88;;;32.69;36.13
38054;BME280;23859;50.672;7.164;2022-08-25T11:13:00;100550.28;;;32.38;36.41
38054;BME280;23859;50.672;7.164;2022-08-25T11:15:41;100555.28;;;32.01;36.61
38054;BME280;23859;50.672;7.164;2022-08-25T11:18:12;100546.75;;;32.33;35.99
38054;BME280;23859;50.672;7.164;2022-08-25T11:20:49;100541.59;;;32.89;34.96
38054;BME280;23859;50.672;7.164;2022-08-25T11:26:42;100542.13;;;34.39;32.99
38054;BME280;23859;50.672;7.164;2022-08-25T11:29:11;100541.06;;;35.97;30.62
38054;BME280;23859;50.672;7.164;2022-08-25T11:31:43;100538.03;;;36.25;29.96
38054;BME280;23859;50.672;7.164;2022-08-25T11:34:11;100539.47;;;36.23;29.61
38054;BME280;23859;50.672;7.164;2022-08-25T11:36:41;100548.19;;;35.29;30.96
38054;BME280;23859;50.672;7.164;2022-08-25T11:39:23;100532.38;;;34.93;31.78
38054;BME280;23859;50.672;7.164;2022-08-25T11:47:49;100525.81;;;34.66;31.18
38054;BME280;23859;50.672;7.164;2022-08-25T11:50:30;100520.91;;;35.23;30.86
38054;BME280;23859;50.672;7.164;2022-08-25T11:53:23;100525.69;;;35.18;30.34
38054;BME280;23859;50.672;7.164;2022-08-25T11:55:52;100524.25;;;35.38;30.44
38054;BME280;23859;50.672;7.164;2022-08-25T12:00:58;100516.69;;;35.62;30.60
38054;BME280;23859;50.672;7.164;2022-08-25T12:11:50;100506.72;;;33.18;33.39
38054;BME280;23859;50.672;7.164;2022-08-25T12:14:36;100504.91;;;33.37;33.37
38054;BME280;23859;50.672;7.164;2022-08-25T12:17:21;100504.53;;;33.15;34.28
38054;BME280;23859;50.672;7.164;2022-08-25T12:19:53;100504.00;;;33.13;34.32
38054;BME280;23859;50.672;7.164;2022-08-25T12:25:28;100481.16;;;32.54;35.26
38054;BME280;23859;50.672;7.164;2022-08-25T12:30:48;100482.75;;;32.50;35.08
38054;BME280;23859;50.672;7.164;2022-08-25T12:41:18;100480.13;;;32.26;34.33
38054;BME280;23859;50.672;7.164;2022-08-25T12:43:48;100468.81;;;32.27;34.54
38054;BME280;23859;50.672;7.164;2022-08-25T12:48:56;100466.66;;;32.19;33.93
38054;BME280;23859;50.672;7.164;2022-08-25T12:51:49;100460.81;;;32.31;33.33
38054;BME280;23859;50.672;7.164;2022-08-25T12:54:44;100460.53;;;32.27;33.03
38054;BME280;23859;50.672;7.164;2022-08-25T12:59:54;100464.72;;;32.20;33.32
38054;BME280;23859;50.672;7.164;2022-08-25T13:06:34;100452.56;;;32.26;33.11
38054;BME280;23859;50.672;7.164;2022-08-25T13:08:52;100449.88;;;32.16;33.69
38054;BME280;23859;50.672;7.164;2022-08-25T13:11:40;100450.41;;;32.13;33.43
38054;BME280;23859;50.672;7.164;2022-08-25T13:14:36;100448.75;;;32.17;33.68
38054;BME280;23859;50.672;7.164;2022-08-25T13:17:03;100455.38;;;32.11;32.54
38054;BME280;23859;50.672;7.164;2022-08-25T13:19:29;100437.75;;;32.17;33.08
38054;BME280;23859;50.672;7.164;2022-08-25T13:21:59;100448.75;;;32.22;32.26
38054;BME280;23859;50.672;7.164;2022-08-25T13:24:32;100432.81;;;32.09;31.99
38054;BME280;23859;50.672;7.164;2022-08-25T13:27:02;100435.50;;;32.29;32.03
38054;BME280;23859;50.672;7.164;2022-08-25T13:29:31;100429.22;;;32.13;32.59
38054;BME280;23859;50.672;7.164;2022-08-25T13:32:05;100427.84;;;32.11;33.57
38054;BME280;23859;50.672;7.164;2022-08-25T13:34:34;100426.66;;;32.32;32.16
38054;BME280;23859;50.672;7.164;2022-08-25T13:37:09;100422.03;;;32.17;32.92
38054;BME280;23859;50.672;7.164;2022-08-25T13:40:10;100427.78;;;32.31;32.36
38054;BME280;23859;50.672;7.164;2022-08-25T13:42:41;100422.47;;;32.44;32.74
38054;BME280;23859;50.672;7.164;2022-08-25T13:45:11;100415.72;;;32.17;32.45
38054;BME280;23859;50.672;7.164;2022-08-25T13:47:40;100412.31;;;32.35;32.51
38054;BME280;23859;50.672;7.164;2022-08-25T13:53:09;100411.56;;;32.24;31.99
38054;BME280;23859;50.672;7.164;2022-08-25T13:55:51;100407.91;;;32.39;32.38
38054;BME280;23859;50.672;7.164;2022-08-25T13:58:24;100407.91;;;32.43;32.09
38054;BME280;23859;50.672;7.164;2022-08-25T14:01:16;100400.34;;;32.64;31.58
38054;BME280;23859;50.672;7.164;2022-08-25T14:03:46;100409.53;;;32.93;31.50
38054;BME280;23859;50.672;7.164;2022-08-25T14:08:44;100398.13;;;33.14;31.43
38054;BME280;23859;50.672;7.164;2022-08-25T14:14:03;100398.66;;;32.73;29.25
38054;BME280;23859;50.672;7.164;2022-08-25T14:16:32;100397.19;;;32.85;30.00
38054;BME280;23859;50.672;7.164;2022-08-25T14:19:00;100389.38;;;33.64;29.65
38054;BME280;23859;50.672;7.164;2022-08-25T14:21:30;100389.34;;;35.30;28.15
38054;BME280;23859;50.672;7.164;2022-08-25T14:23:58;100396.63;;;35.58;27.48
38054;BME280;23859;50.672;7.164;2022-08-25T14:26:24;100395.06;;;35.21;27.74
38054;BME280;23859;50.672;7.164;2022-08-25T14:28:51;100384.91;;;34.61;28.67
38054;BME280;23859;50.672;7.164;2022-08-25T14:31:29;100386.69;;;34.10;29.04
38054;BME280;23859;50.672;7.164;2022-08-25T14:36:26;100386.84;;;33.39;30.11
38054;BME280;23859;50.672;7.164;2022-08-25T14:38:54;100392.41;;;33.01;30.38